Hovedside
METAR-TAF:

METAR-TAF

Lufthavner :

Kiruna lufthavn

Kiruna, Sverige

breddegrad: 67-49N, lengdegrad: 020-20E, høyde over havet: 452 m

Gjeldene værobservasjon

Denne rapporten ble laget for 20 minutter siden, klokken 03:50 UTC
Vind 14 kt fra Sør-sørvest
Temperatur -5°C
Luftfuktighet 73%
Trykk 999 hPa
Sikt 10 km eller mer

METAR: ESNQ 200350Z AUTO 21014KT 9999 BKN047/// OVC057/// M05/M09 Q0999

Tid: 05:10 (04:10 UTC)

Varsel

Denne rapporten ble laget for 40 minutter siden, klokken 03:30 UTC
Varsel gyldig fra 20. klokken 04 UTC til 20. klokken 12 UTC
Vind 12 kt fra Sør-sørvest
Sikt 10 km eller mer
Få skyer i en høyde av 2000 ft
Brutte skyer i en høyde av 4500 ft
Midlertidig
fra 20. klokken 05 UTC til 20. klokken 11 UTC
Sikt: 2000 m
i en høyde av 900 ft
snø

TAF: ESNQ 200330Z 2004/2012 20012KT 9999 FEW020 BKN045 TEMPO 2005/2011 2000 SN VV009

Værobservasjoner og værvarsel for over 4000 flyplasser (METAR- og TAF-rapporter).

Tilgjengelige stasjoner er representert av de røde og gule prikkene på kartet.

Hold musepekeren over prikken for å se navnet på stasjonen.

Klikk så for å se værobservasjoner og -varsler.

For å forandre kartet kan du klikke på den grønne knappen med svart kryss for å zoome inn, på den grønne knappen med strek for å zoome ut, eller på de grønne pilene for å se tilstøtende kart.


METAR-TAF: